Time;durP1;ratioP1;P1;durP2;ratioP2;P2;SDS_P1;SDS_P2;PMS_P1;PMS_P2;Temp;Humidity;BMP_temperature;BMP_pressure;BME280_temperature;BME280_humidity;BME280_pressure;Samples;Min_cycle;Max_cycle;Signal;HPM_P1;HPM_P2
2021/03/17 00:00:52;;;;;;;3.57;2.40;;;;;;;5.83;100.00;98552.34;4988220;28;20584;-70
2021/03/17 00:03:19;;;;;;;3.83;2.40;;;;;;;5.68;100.00;98553.06;4995808;28;20216;-70
2021/03/17 00:05:47;;;;;;;5.57;2.20;;;;;;;6.06;100.00;98550.78;4994073;28;20205;-70
2021/03/17 00:08:15;;;;;;;3.13;1.90;;;;;;;6.02;100.00;98551.25;4993568;28;20201;-69
2021/03/17 00:10:45;;;;;;;4.33;2.23;;;;;;;6.01;100.00;98549.59;4988470;28;20207;-70
2021/03/17 00:13:12;;;;;;;4.27;2.30;;;;;;;5.78;100.00;98551.94;4994182;28;20251;-70
2021/03/17 00:15:40;;;;;;;2.50;1.83;;;;;;;5.89;100.00;98549.03;4993561;28;20759;-70
2021/03/17 00:18:08;;;;;;;3.10;1.97;;;;;;;5.94;100.00;98543.28;4993397;28;20217;-70
2021/03/17 00:20:35;;;;;;;2.73;1.87;;;;;;;5.99;100.00;98548.94;4994057;28;20201;-70
2021/03/17 00:23:02;;;;;;;3.50;2.27;;;;;;;5.85;100.00;98547.69;4993355;28;20225;-70
2021/03/17 00:25:32;;;;;;;2.43;1.77;;;;;;;6.02;100.00;98541.50;4995252;28;20209;-69
2021/03/17 00:28:01;;;;;;;3.73;2.33;;;;;;;6.03;100.00;98542.31;4999159;28;20199;-71
2021/03/17 00:30:28;;;;;;;5.97;2.13;;;;;;;5.97;100.00;98540.31;4995192;28;20624;-70
2021/03/17 00:32:56;;;;;;;3.40;1.77;;;;;;;5.96;100.00;98536.84;4992999;28;20296;-71
2021/03/17 00:35:23;;;;;;;6.03;2.37;;;;;;;5.94;100.00;98543.28;4986908;28;20238;-72
2021/03/17 00:37:50;;;;;;;3.77;2.10;;;;;;;5.97;100.00;98535.84;4991999;28;20200;-71
2021/03/17 00:40:17;;;;;;;4.67;2.20;;;;;;;5.86;100.00;98527.34;4993045;28;20208;-70
2021/03/17 00:42:45;;;;;;;4.13;2.47;;;;;;;6.04;100.00;98530.75;4993255;28;20244;-70
2021/03/17 00:45:12;;;;;;;4.60;2.40;;;;;;;5.96;100.00;98533.34;4993152;28;20744;-70
2021/03/17 00:47:40;;;;;;;3.07;1.90;;;;;;;5.98;100.00;98526.06;4998470;28;20201;-70
2021/03/17 00:50:09;;;;;;;3.27;2.07;;;;;;;6.04;100.00;98528.09;4997643;28;20211;-70
2021/03/17 00:52:35;;;;;;;2.97;1.97;;;;;;;6.05;100.00;98519.97;4996243;28;20225;-70
2021/03/17 00:55:03;;;;;;;3.83;2.07;;;;;;;5.98;100.00;98523.41;4995041;28;20212;-70
2021/03/17 00:57:30;;;;;;;3.37;2.50;;;;;;;5.95;100.00;98521.09;4998401;28;20196;-70
2021/03/17 00:59:58;;;;;;;3.83;2.40;;;;;;;5.98;100.00;98523.41;4997014;28;20204;-70
2021/03/17 01:02:25;;;;;;;4.13;2.57;;;;;;;5.84;100.00;98521.41;4994087;28;20220;-71
2021/03/17 01:04:51;;;;;;;4.17;2.40;;;;;;;5.67;100.00;98509.84;4991511;28;20208;-71
2021/03/17 01:07:19;;;;;;;4.67;2.90;;;;;;;5.73;100.00;98509.22;4995396;28;20247;-71
2021/03/17 01:09:46;;;;;;;4.83;2.70;;;;;;;5.75;100.00;98506.41;4992482;28;20219;-72
2021/03/17 01:12:14;;;;;;;4.33;2.30;;;;;;;5.65;100.00;98506.53;4998010;28;20244;-71
2021/03/17 01:14:41;;;;;;;4.03;2.60;;;;;;;5.70;100.00;98506.06;4992485;28;20725;-72
2021/03/17 01:17:08;;;;;;;3.57;2.43;;;;;;;5.70;100.00;98501.59;4992495;28;20273;-71
2021/03/17 01:19:36;;;;;;;3.67;2.43;;;;;;;5.69;100.00;98499.94;4993634;28;20208;-71
2021/03/17 01:22:03;;;;;;;3.70;2.40;;;;;;;5.70;100.00;98498.13;4993271;28;20217;-71
2021/03/17 01:24:30;;;;;;;4.20;2.60;;;;;;;5.64;100.00;98498.75;4995938;28;20199;-71
2021/03/17 01:26:57;;;;;;;3.70;2.37;;;;;;;5.71;100.00;98490.03;4999689;28;20204;-71
2021/03/17 01:29:24;;;;;;;3.60;2.17;;;;;;;5.66;100.00;98494.97;4994290;28;20212;-71
2021/03/17 01:31:51;;;;;;;4.70;2.90;;;;;;;5.75;100.00;98503.78;4992470;28;20227;-72
2021/03/17 01:34:19;;;;;;;3.63;2.33;;;;;;;5.76;100.00;98497.47;4992139;28;20232;-71
2021/03/17 01:36:46;;;;;;;4.70;2.80;;;;;;;5.73;100.00;98501.28;4993079;28;20954;-71
2021/03/17 01:39:12;;;;;;;5.20;2.83;;;;;;;5.82;100.00;98497.72;4989750;28;20683;-72
2021/03/17 01:41:39;;;;;;;5.13;3.10;;;;;;;5.72;100.00;98498.78;4992806;28;20201;-71
2021/03/17 01:44:06;;;;;;;4.50;2.90;;;;;;;5.95;100.00;98497.25;4994221;28;20686;-72
2021/03/17 01:46:33;;;;;;;5.37;3.27;;;;;;;5.94;100.00;98499.06;4992432;28;20217;-71
2021/03/17 01:49:00;;;;;;;5.27;3.17;;;;;;;5.80;100.00;98502.34;4992392;28;20541;-71
2021/03/17 01:51:29;;;;;;;4.70;2.83;;;;;;;5.90;100.00;98499.56;4992285;28;20203;-69
2021/03/17 01:53:57;;;;;;;5.63;3.33;;;;;;;5.96;100.00;98489.16;4993858;28;20224;-71
2021/03/17 01:56:23;;;;;;;6.43;3.50;;;;;;;6.00;100.00;98487.03;4989145;28;20202;-71
2021/03/17 01:58:50;;;;;;;5.20;3.40;;;;;;;5.94;100.00;98482.38;5005492;28;20843;-68
2021/03/17 02:01:17;;;;;;;4.83;3.17;;;;;;;5.92;100.00;98479.88;4997294;28;20213;-71
2021/03/17 02:03:44;;;;;;;5.87;3.17;;;;;;;5.85;100.00;98489.44;4996878;28;20308;-71
2021/03/17 02:06:11;;;;;;;6.47;3.40;;;;;;;5.87;100.00;98483.97;5002452;28;20625;-71
2021/03/17 02:08:40;;;;;;;4.83;2.93;;;;;;;5.93;100.00;98478.03;4995574;28;20201;-70
2021/03/17 02:11:07;;;;;;;4.50;3.03;;;;;;;5.93;100.00;98484.16;5002143;28;20214;-70
2021/03/17 02:13:58;;;;;;;5.17;3.00;;;;;;;5.74;100.00;98489.69;4995992;28;20576;-70
2021/03/17 02:16:27;;;;;;;4.77;2.97;;;;;;;5.83;100.00;98480.00;4990156;28;20217;-69
2021/03/17 02:19:15;;;;;;;4.93;3.03;;;;;;;5.82;100.00;98481.81;4996283;28;20621;-70
2021/03/17 02:22:22;;;;;;;6.03;3.33;;;;;;;5.90;100.00;98479.19;4978384;28;20300;-70
2021/03/17 02:24:53;;;;;;;6.63;3.10;;;;;;;5.85;100.00;98481.47;4998439;28;20210;-70
2021/03/17 02:27:48;;;;;;;4.97;3.10;;;;;;;5.88;100.00;98480.34;5003317;28;20212;-70
2021/03/17 02:30:33;;;;;;;8.97;3.13;;;;;;;5.86;100.00;98483.16;4998723;28;20207;-70
2021/03/17 02:33:30;;;;;;;4.90;2.77;;;;;;;5.63;100.00;98482.03;5002117;28;20763;-70
2021/03/17 02:36:03;;;;;;;4.87;3.03;;;;;;;5.79;100.00;98486.56;4999335;28;20201;-70
2021/03/17 02:38:32;;;;;;;6.07;3.30;;;;;;;5.62;100.00;98482.19;4994435;28;20213;-70
2021/03/17 02:41:00;;;;;;;4.47;2.93;;;;;;;5.82;100.00;98484.47;4999285;28;20233;-70
2021/03/17 02:43:30;;;;;;;4.07;2.77;;;;;;;5.62;100.00;98482.19;5004785;28;20311;-70
2021/03/17 02:46:07;;;;;;;4.13;2.60;;;;;;;5.84;100.00;98487.78;4996538;28;20201;-70
2021/03/17 02:48:37;;;;;;;3.47;2.60;;;;;;;5.83;100.00;98491.41;4995528;28;20879;-70
2021/03/17 02:51:09;;;;;;;3.97;2.30;;;;;;;5.69;100.00;98481.38;4997452;28;20209;-70
2021/03/17 02:53:38;;;;;;;3.80;2.80;;;;;;;5.63;100.00;98484.69;4990080;28;20228;-69
2021/03/17 02:56:08;;;;;;;5.40;2.77;;;;;;;5.49;100.00;98479.16;4997548;28;20242;-70
2021/03/17 02:58:36;;;;;;;3.50;2.33;;;;;;;5.66;100.00;98479.06;5002914;28;20214;-71
2021/03/17 03:01:03;;;;;;;3.67;2.33;;;;;;;5.61;100.00;98483.19;4999764;28;20200;-69
2021/03/17 03:03:33;;;;;;;3.63;2.20;;;;;;;5.52;100.00;98479.66;4996097;28;20575;-71
2021/03/17 03:06:02;;;;;;;3.80;2.30;;;;;;;5.65;100.00;98476.59;4998416;28;20678;-69
2021/03/17 03:08:30;;;;;;;3.33;2.23;;;;;;;5.36;100.00;98478.75;4994690;28;20550;-69
2021/03/17 03:10:57;;;;;;;3.83;2.13;;;;;;;5.45;100.00;98477.81;4987533;28;20211;-69
2021/03/17 03:13:25;;;;;;;3.37;2.30;;;;;;;5.24;100.00;98480.00;4999418;28;20710;-69
2021/03/17 03:15:53;;;;;;;3.53;2.53;;;;;;;5.07;100.00;98481.72;4994632;28;20207;-69
2021/03/17 03:18:21;;;;;;;3.37;2.33;;;;;;;5.33;100.00;98482.53;4995361;28;20592;-71
2021/03/17 03:20:49;;;;;;;3.40;2.00;;;;;;;5.35;100.00;98477.94;4989099;28;20212;-71
2021/03/17 03:23:18;;;;;;;3.50;2.20;;;;;;;5.34;100.00;98480.72;4999443;28;20220;-71
2021/03/17 03:25:47;;;;;;;4.07;2.50;;;;;;;5.43;100.00;98472.66;4994557;28;20208;-70
2021/03/17 03:28:15;;;;;;;3.70;2.20;;;;;;;5.43;100.00;98472.66;4998985;28;20213;-68
2021/03/17 03:30:46;;;;;;;4.10;2.13;;;;;;;5.37;100.00;98480.41;5002752;28;20212;-70
2021/03/17 03:33:13;;;;;;;3.07;2.20;;;;;;;5.52;100.00;98484.13;4998550;28;20241;-69
2021/03/17 03:35:41;;;;;;;5.63;2.63;;;;;;;5.56;100.00;98482.81;4990936;28;20568;-72
2021/03/17 03:38:09;;;;;;;4.40;2.70;;;;;;;5.58;100.00;98492.25;5001198;28;20665;-70
2021/03/17 03:40:36;;;;;;;3.63;2.57;;;;;;;5.62;100.00;98484.84;4994350;28;20207;-71
2021/03/17 03:43:04;;;;;;;3.77;2.20;;;;;;;5.31;100.00;98489.81;4994711;28;20287;-71
2021/03/17 03:45:31;;;;;;;3.80;2.80;;;;;;;5.28;100.00;98487.47;5000286;28;20264;-71
2021/03/17 03:47:58;;;;;;;3.93;2.30;;;;;;;5.27;100.00;98483.16;4994414;28;20201;-69
2021/03/17 03:50:26;;;;;;;4.00;2.57;;;;;;;5.24;100.00;98491.41;5001856;28;20264;-70
2021/03/17 03:53:00;;;;;;;3.57;2.10;;;;;;;5.08;100.00;98491.28;4996820;28;20229;-70
2021/03/17 03:55:30;;;;;;;2.97;2.13;;;;;;;5.19;100.00;98495.50;5002204;28;20286;-70
2021/03/17 03:58:02;;;;;;;3.50;2.63;;;;;;;5.18;100.00;98496.50;4994399;28;20203;-70
2021/03/17 04:00:32;;;;;;;3.47;2.33;;;;;;;5.35;100.00;98491.16;4993341;28;20203;-71
2021/03/17 04:03:00;;;;;;;3.77;2.17;;;;;;;5.36;100.00;98494.63;4998726;28;20692;-69
2021/03/17 04:05:32;;;;;;;3.80;2.83;;;;;;;5.09;100.00;98492.13;4995128;28;20283;-70
2021/03/17 04:08:05;;;;;;;5.20;2.53;;;;;;;5.17;100.00;98498.31;4993693;28;20206;-70
2021/03/17 04:10:33;;;;;;;3.13;2.20;;;;;;;5.13;100.00;98496.94;4996713;28;20204;-70
2021/03/17 04:13:02;;;;;;;4.17;2.57;;;;;;;5.24;100.00;98495.88;4993390;28;20389;-72
2021/03/17 04:15:30;;;;;;;3.83;2.57;;;;;;;5.36;100.00;98503.41;4993598;28;20216;-69
2021/03/17 04:17:58;;;;;;;5.27;3.20;;;;;;;5.36;100.00;98500.75;4993810;28;20206;-69
2021/03/17 04:20:30;;;;;;;4.53;2.87;;;;;;;5.49;100.00;98503.78;4993203;28;20779;-71
2021/03/17 04:22:57;;;;;;;4.83;2.90;;;;;;;5.37;100.00;98502.41;4993885;28;20699;-69
2021/03/17 04:25:25;;;;;;;4.00;3.03;;;;;;;5.10;100.00;98513.16;4993094;28;20204;-72
2021/03/17 04:27:53;;;;;;;7.93;3.20;;;;;;;5.35;100.00;98514.13;4998859;28;20211;-69
2021/03/17 04:30:21;;;;;;;5.07;3.30;;;;;;;5.32;100.00;98502.03;4996253;28;20196;-69
2021/03/17 04:32:49;;;;;;;4.43;2.90;;;;;;;5.39;100.00;98507.56;4995683;28;20225;-69
2021/03/17 04:35:17;;;;;;;6.00;3.50;;;;;;;5.56;100.00;98511.94;4992360;28;20517;-70
2021/03/17 04:37:45;;;;;;;6.10;3.67;;;;;;;5.50;100.00;98513.41;4994492;28;20209;-69
2021/03/17 04:40:14;;;;;;;6.70;4.00;;;;;;;5.20;100.00;98524.47;4989592;28;20204;-71
2021/03/17 04:42:41;;;;;;;7.07;3.80;;;;;;;5.37;100.00;98518.28;4987775;28;20232;-71
2021/03/17 04:45:10;;;;;;;7.87;4.50;;;;;;;5.27;100.00;98517.56;4992886;28;20641;-70
2021/03/17 04:47:38;;;;;;;6.13;3.83;;;;;;;5.43;100.00;98514.19;4994356;28;20213;-72
2021/03/17 04:50:08;;;;;;;6.60;4.40;;;;;;;5.45;100.00;98515.69;5002527;28;20214;-69
2021/03/17 04:52:36;;;;;;;8.10;5.17;;;;;;;5.31;100.00;98515.44;4992224;28;20224;-70
2021/03/17 04:55:03;;;;;;;6.07;4.13;;;;;;;5.34;100.00;98517.78;4996010;28;20327;-70
2021/03/17 04:57:32;;;;;;;7.13;4.67;;;;;;;5.55;100.00;98511.13;4998439;28;20676;-70
2021/03/17 04:59:59;;;;;;;6.23;4.40;;;;;;;5.30;100.00;98527.00;4987556;28;20673;-70
2021/03/17 05:02:28;;;;;;;6.70;4.27;;;;;;;5.36;100.00;98521.94;4992725;28;20279;-70
2021/03/17 05:04:56;;;;;;;12.33;5.43;;;;;;;5.33;100.00;98522.22;4992758;28;20196;-70
2021/03/17 05:07:25;;;;;;;9.87;4.37;;;;;;;5.26;100.00;98531.78;4992536;28;20224;-70
2021/03/17 05:09:52;;;;;;;9.50;5.20;;;;;;;5.51;100.00;98524.81;4995603;28;20683;-70
2021/03/17 05:12:20;;;;;;;9.27;5.17;;;;;;;5.31;100.00;98526.84;4989133;28;20229;-70
2021/03/17 05:14:47;;;;;;;7.70;5.17;;;;;;;5.45;100.00;98525.44;4992320;28;20307;-70
2021/03/17 05:17:14;;;;;;;8.57;5.23;;;;;;;5.63;100.00;98534.97;4997813;28;20211;-70
2021/03/17 05:19:42;;;;;;;8.73;5.40;;;;;;;5.38;100.00;98532.38;4990367;28;20216;-70
2021/03/17 05:22:10;;;;;;;7.63;5.10;;;;;;;5.49;100.00;98538.19;4996123;28;20764;-71
2021/03/17 05:24:38;;;;;;;8.47;5.43;;;;;;;5.32;100.00;98540.91;4990185;28;20226;-70
2021/03/17 05:27:09;;;;;;;9.47;5.60;;;;;;;5.71;100.00;98542.97;4993289;28;20204;-70
2021/03/17 05:29:38;;;;;;;8.30;5.27;;;;;;;5.57;100.00;98543.56;4998043;28;20411;-70
2021/03/17 05:32:06;;;;;;;11.43;6.87;;;;;;;5.22;100.00;98541.00;4992863;28;20220;-70
2021/03/17 05:34:35;;;;;;;10.30;6.37;;;;;;;5.30;100.00;98527.00;4997446;28;20323;-70
2021/03/17 05:37:02;;;;;;;10.20;6.13;;;;;;;5.32;100.00;98532.97;4988525;28;20244;-70
2021/03/17 05:39:29;;;;;;;11.60;6.97;;;;;;;5.72;100.00;98534.03;4992896;28;20211;-70
2021/03/17 05:41:56;;;;;;;11.47;6.87;;;;;;;5.68;100.00;98535.34;4991012;28;20370;-71
2021/03/17 05:44:23;;;;;;;9.53;6.17;;;;;;;5.60;100.00;98537.97;4998073;28;20617;-73
2021/03/17 05:46:50;;;;;;;10.50;6.80;;;;;;;5.41;100.00;98540.81;4995843;28;20655;-71
2021/03/17 05:49:19;;;;;;;10.97;6.57;;;;;;;5.47;100.00;98548.13;4994147;28;20211;-71
2021/03/17 05:51:46;;;;;;;11.33;6.87;;;;;;;5.47;100.00;98548.13;4999265;28;20201;-71
2021/03/17 05:54:13;;;;;;;12.40;7.03;;;;;;;5.50;100.00;98552.28;4990371;28;20267;-70
2021/03/17 05:56:40;;;;;;;13.43;7.13;;;;;;;5.45;100.00;98557.22;4991847;28;20207;-73
2021/03/17 05:59:09;;;;;;;13.60;7.87;;;;;;;5.34;100.00;98562.75;4988252;28;20214;-71
2021/03/17 06:01:37;;;;;;;13.70;7.87;;;;;;;5.45;100.00;98568.63;4990515;28;20286;-69
2021/03/17 06:04:04;;;;;;;12.13;7.00;;;;;;;5.36;100.00;98564.25;4992270;28;20720;-69
2021/03/17 06:06:31;;;;;;;14.40;8.63;;;;;;;5.54;100.00;98565.03;4993625;28;20205;-69
2021/03/17 06:09:01;;;;;;;15.10;8.07;;;;;;;5.47;100.00;98568.47;4998333;28;20627;-69
2021/03/17 06:11:28;;;;;;;17.30;8.97;;;;;;;5.67;100.00;98565.47;4991539;28;20213;-70
2021/03/17 06:13:56;;;;;;;16.67;9.07;;;;;;;5.60;100.00;98567.09;4994451;28;20226;-69
2021/03/17 06:16:25;;;;;;;16.20;9.10;;;;;;;5.73;100.00;98567.47;4989088;28;20254;-70
2021/03/17 06:18:53;;;;;;;15.97;8.87;;;;;;;5.83;100.00;98570.88;4990156;28;20262;-69
2021/03/17 06:21:20;;;;;;;14.47;8.47;;;;;;;5.91;100.00;98578.03;4990304;28;20303;-69
2021/03/17 06:23:48;;;;;;;15.90;9.50;;;;;;;5.08;100.00;98588.34;4991707;28;20216;-69
2021/03/17 06:26:16;;;;;;;15.83;8.33;;;;;;;5.42;100.00;98573.38;4994021;28;20214;-70
2021/03/17 06:28:44;;;;;;;14.73;7.90;;;;;;;5.70;100.00;98585.50;4991697;28;20212;-70
2021/03/17 06:31:11;;;;;;;14.33;9.23;;;;;;;5.82;100.00;98579.81;4992630;28;20677;-70
2021/03/17 06:33:39;;;;;;;14.80;9.03;;;;;;;5.67;100.00;98583.16;4995365;28;20231;-70
2021/03/17 06:36:16;;;;;;;14.53;7.90;;;;;;;5.74;100.00;98582.38;4996273;28;20205;-71
2021/03/17 06:38:44;;;;;;;16.60;9.23;;;;;;;5.50;100.00;98587.53;4984925;28;20205;-73
2021/03/17 06:41:11;;;;;;;14.80;8.33;;;;;;;5.57;100.00;98587.72;4988670;28;20299;-72
2021/03/17 06:43:40;;;;;;;16.10;9.50;;;;;;;5.42;100.00;98598.03;4990455;28;20300;-71
2021/03/17 06:46:08;;;;;;;15.80;9.33;;;;;;;5.51;100.00;98586.53;4995116;28;20214;-70
2021/03/17 06:48:37;;;;;;;14.23;8.27;;;;;;;5.61;100.00;98592.56;5002343;28;20220;-70
2021/03/17 06:51:08;;;;;;;19.13;9.13;;;;;;;5.53;100.00;98600.44;4996494;28;20576;-69
2021/03/17 06:53:45;;;;;;;16.10;9.27;;;;;;;5.70;100.00;98604.88;4990837;28;20759;-70
2021/03/17 06:56:14;;;;;;;15.50;8.30;;;;;;;5.58;100.00;98605.28;5000323;28;20622;-70
2021/03/17 06:58:42;;;;;;;15.03;8.37;;;;;;;5.61;100.00;98615.53;4987890;28;20208;-69
2021/03/17 07:01:25;;;;;;;14.67;9.00;;;;;;;5.88;100.00;98615.41;4991445;28;20242;-69
2021/03/17 07:03:56;;;;;;;14.40;8.43;;;;;;;5.80;100.00;98623.31;4995497;28;20256;-72
2021/03/17 07:06:25;;;;;;;13.33;8.00;;;;;;;5.85;100.00;98629.00;5000738;28;20661;-69
2021/03/17 07:08:52;;;;;;;19.40;9.00;;;;;;;5.54;100.00;98627.75;4991391;28;20210;-76
2021/03/17 07:11:23;;;;;;;10.70;6.87;;;;;;;5.55;100.00;98630.25;4994850;28;20210;-70
2021/03/17 07:13:55;;;;;;;14.87;6.93;;;;;;;5.53;100.00;98628.75;4991278;28;20229;-67
2021/03/17 07:16:40;;;;;;;10.10;6.67;;;;;;;5.61;100.00;98632.28;4995267;28;20231;-71
2021/03/17 07:19:07;;;;;;;9.03;6.17;;;;;;;5.64;100.00;98626.66;5002466;28;20211;-70
2021/03/17 07:21:36;;;;;;;12.20;7.33;;;;;;;5.65;100.00;98633.63;4995363;28;20214;-67
2021/03/17 07:24:05;;;;;;;12.70;7.07;;;;;;;5.80;100.00;98632.13;4998904;28;20205;-68
2021/03/17 07:26:33;;;;;;;15.17;7.17;;;;;;;5.81;100.00;98632.94;4996861;28;20208;-68
2021/03/17 07:29:12;;;;;;;10.23;6.63;;;;;;;5.85;100.00;98629.00;4992613;28;20236;-67
2021/03/17 07:31:44;;;;;;;11.17;6.43;;;;;;;5.87;100.00;98627.00;4997526;28;20205;-67
2021/03/17 07:34:16;;;;;;;9.57;6.13;;;;;;;5.87;100.00;98632.28;4990762;28;20237;-67
2021/03/17 07:36:46;;;;;;;11.53;6.70;;;;;;;5.99;100.00;98615.97;5013303;28;20216;-68
2021/03/17 07:39:19;;;;;;;12.60;7.13;;;;;;;6.11;100.00;98621.84;4993394;28;20215;-69
2021/03/17 07:41:47;;;;;;;12.10;7.30;;;;;;;5.89;100.00;98628.50;4994779;28;20681;-67
2021/03/17 07:44:15;;;;;;;13.77;7.73;;;;;;;5.98;100.00;98634.69;4994896;28;20612;-67
2021/03/17 07:46:44;;;;;;;14.87;7.50;;;;;;;5.89;100.00;98633.00;4989051;28;20295;-67
2021/03/17 07:49:11;;;;;;;13.20;6.90;;;;;;;6.26;100.00;98634.34;5004759;28;20213;-67
2021/03/17 07:51:46;;;;;;;13.70;7.70;;;;;;;6.07;100.00;98637.22;4994679;28;20205;-67
2021/03/17 07:54:20;;;;;;;14.13;7.37;;;;;;;5.98;100.00;98642.63;4999150;28;20292;-67
2021/03/17 07:56:48;;;;;;;12.83;6.90;;;;;;;6.48;100.00;98632.94;4990725;28;20218;-67
2021/03/17 07:59:17;;;;;;;13.37;7.03;;;;;;;6.25;100.00;98647.75;4994930;28;20208;-67
2021/03/17 08:01:45;;;;;;;10.73;6.50;;;;;;;6.59;100.00;98645.91;4998482;28;20232;-66
2021/03/17 08:04:12;;;;;;;11.00;6.57;;;;;;;6.85;100.00;98642.16;5003644;28;20205;-67
2021/03/17 08:06:39;;;;;;;12.40;6.83;;;;;;;6.31;100.00;98644.47;5001647;28;20645;-68
2021/03/17 08:09:07;;;;;;;11.17;6.53;;;;;;;6.92;100.00;98637.91;5003224;28;20213;-67
2021/03/17 08:11:34;;;;;;;12.00;6.40;;;;;;;6.92;100.00;98640.56;4998260;28;20203;-67
2021/03/17 08:14:01;;;;;;;12.80;5.77;;;;;;;7.25;100.00;98642.25;4994673;28;20266;-69
2021/03/17 08:16:30;;;;;;;11.00;6.17;;;;;;;7.25;100.00;98639.59;4994896;28;20224;-69
2021/03/17 08:18:58;;;;;;;10.97;5.90;;;;;;;7.61;100.00;98637.44;4994106;28;20265;-68
2021/03/17 08:21:48;;;;;;;9.53;5.27;;;;;;;7.24;100.00;98635.28;4995774;28;20207;-67
2021/03/17 08:24:43;;;;;;;10.13;5.07;;;;;;;7.44;100.00;98636.63;4996742;28;20213;-68
2021/03/17 08:27:24;;;;;;;7.57;4.60;;;;;;;7.62;100.00;98637.25;4994382;28;20218;-68
2021/03/17 08:30:03;;;;;;;8.17;4.17;;;;;;;7.96;100.00;98626.44;4992475;28;20691;-67
2021/03/17 08:32:53;;;;;;;8.47;4.30;;;;;;;7.98;100.00;98635.06;5009883;28;20556;-67
2021/03/17 08:35:20;;;;;;;8.10;4.33;;;;;;;7.49;100.00;98641.41;5014486;28;20218;-67
2021/03/17 08:37:52;;;;;;;9.30;4.57;;;;;;;7.35;100.00;98639.41;5000964;28;20210;-67
2021/03/17 08:40:48;;;;;;;11.87;4.93;;;;;;;7.74;100.00;98630.63;4994354;28;20215;-67
2021/03/17 08:43:43;;;;;;;8.70;4.70;;;;;;;7.73;100.00;98633.44;4996668;28;20223;-68
2021/03/17 08:46:11;;;;;;;8.43;4.90;;;;;;;7.30;100.00;98639.94;4986111;28;20265;-67
2021/03/17 08:49:01;;;;;;;8.90;5.03;;;;;;;7.41;100.00;98636.13;4996756;28;20204;-66
2021/03/17 08:52:05;;;;;;;9.30;5.57;;;;;;;7.05;100.00;98648.03;4993316;28;20224;-66
2021/03/17 08:55:06;;;;;;;10.17;4.80;;;;;;;7.05;100.00;98637.44;4997633;28;20237;-68
2021/03/17 08:58:01;;;;;;;11.27;5.43;;;;;;;7.15;100.00;98636.25;4993416;28;20254;-68
2021/03/17 09:00:48;;;;;;;8.83;4.70;;;;;;;7.27;100.00;98632.31;4994404;28;20333;-69
2021/03/17 09:03:37;;;;;;;9.77;5.03;;;;;;;8.08;100.00;98625.88;4996851;28;20312;-67
2021/03/17 09:06:08;;;;;;;9.53;5.23;;;;;;;7.99;100.00;98628.75;4992667;28;20280;-69
2021/03/17 09:09:04;;;;;;;10.60;5.67;;;;;;;6.83;100.00;98625.59;4999594;28;20212;-70
2021/03/17 09:11:55;;;;;;;7.30;4.33;;;;;;;6.80;100.00;98627.75;4957921;28;20211;-71
2021/03/17 09:14:31;;;;;;;8.47;3.60;;;;;;;6.84;100.00;98624.59;5000003;28;20230;-67
2021/03/17 09:17:19;;;;;;;6.73;3.80;;;;;;;6.67;100.00;98625.56;4993193;28;20202;-69
2021/03/17 09:20:08;;;;;;;5.87;3.20;;;;;;;7.73;95.89;98613.03;4987015;28;20203;-69
2021/03/17 09:22:45;;;;;;;7.00;3.60;;;;;;;8.17;86.90;98624.88;4995673;28;20659;-72
2021/03/17 09:25:21;;;;;;;6.83;3.20;;;;;;;8.02;89.42;98607.16;4997916;28;20256;-70
2021/03/17 09:27:53;;;;;;;7.23;3.83;;;;;;;9.18;83.37;98613.28;4997852;28;20210;-69
2021/03/17 09:30:24;;;;;;;7.30;3.20;;;;;;;8.06;91.27;98608.44;4994881;28;20687;-70
2021/03/17 09:32:59;;;;;;;5.97;3.07;;;;;;;7.35;92.32;98613.72;4990664;28;20258;-76
2021/03/17 09:35:27;;;;;;;9.23;3.30;;;;;;;8.00;85.71;98622.44;4992514;28;20281;-76
2021/03/17 09:38:09;;;;;;;6.43;3.47;;;;;;;7.45;86.33;98625.00;4993722;28;20216;-75
2021/03/17 09:40:39;;;;;;;5.43;2.60;;;;;;;7.30;96.44;98620.53;5000461;28;20210;-70
2021/03/17 09:43:23;;;;;;;5.20;2.60;;;;;;;7.74;90.93;98622.66;4994430;28;20229;-72
2021/03/17 09:45:51;;;;;;;5.80;3.00;;;;;;;7.58;88.25;98625.34;4991947;28;20241;-67
2021/03/17 09:48:18;;;;;;;5.10;2.83;;;;;;;7.84;89.81;98618.00;4994745;28;20216;-67
2021/03/17 09:50:45;;;;;;;4.87;2.90;;;;;;;8.09;81.98;98629.38;4995291;28;20211;-67
2021/03/17 09:53:16;;;;;;;4.00;2.70;;;;;;;7.95;78.13;98630.94;4995650;28;20288;-65
2021/03/17 09:55:43;;;;;;;5.80;2.47;;;;;;;7.92;78.10;98623.28;4990489;28;20220;-65
2021/03/17 09:58:10;;;;;;;5.40;3.17;;;;;;;8.60;76.38;98618.25;4996885;28;20215;-70
2021/03/17 10:00:38;;;;;;;6.63;3.47;;;;;;;8.36;83.08;98613.88;4993281;28;20691;-70
2021/03/17 10:03:12;;;;;;;4.90;2.70;;;;;;;8.27;77.39;98608.78;4996962;28;20286;-71
2021/03/17 10:05:39;;;;;;;4.40;2.70;;;;;;;8.58;75.44;98617.63;4996542;28;20202;-71
2021/03/17 10:08:06;;;;;;;5.80;2.67;;;;;;;9.02;73.38;98618.69;4993421;28;20226;-71
2021/03/17 10:10:33;;;;;;;8.47;2.70;;;;;;;8.87;71.28;98615.13;4992236;28;20212;-71
2021/03/17 10:13:00;;;;;;;3.30;2.23;;;;;;;8.93;69.84;98620.56;4994870;28;20586;-71
2021/03/17 10:15:28;;;;;;;3.67;2.43;;;;;;;9.24;69.48;98616.03;4993244;28;20603;-70
2021/03/17 10:17:57;;;;;;;5.17;2.90;;;;;;;9.09;73.04;98607.16;4994454;28;20562;-71
2021/03/17 10:20:27;;;;;;;4.43;2.47;;;;;;;9.42;66.40;98611.25;5003576;28;20217;-70
2021/03/17 10:22:57;;;;;;;6.27;2.77;;;;;;;9.85;65.12;98612.34;4996733;28;20293;-71
2021/03/17 10:25:25;;;;;;;6.93;2.70;;;;;;;9.35;72.46;98599.66;4997105;28;20214;-71
2021/03/17 10:27:54;;;;;;;5.30;2.67;;;;;;;9.41;72.33;98588.28;4997399;28;20277;-71
2021/03/17 10:30:27;;;;;;;5.50;2.60;;;;;;;9.63;67.96;98597.22;4996730;28;20342;-70
2021/03/17 10:32:55;;;;;;;32.20;3.80;;;;;;;9.14;70.15;98603.97;4995442;28;20246;-70
2021/03/17 10:35:25;;;;;;;3.67;2.40;;;;;;;10.12;62.02;98608.28;4995198;28;20223;-71
2021/03/17 10:37:52;;;;;;;2.67;2.03;;;;;;;10.18;64.10;98599.56;4998282;28;20196;-71
2021/03/17 10:40:20;;;;;;;2.47;1.87;;;;;;;8.75;63.39;98603.22;4999343;28;20280;-72
2021/03/17 10:42:48;;;;;;;2.97;1.80;;;;;;;9.01;62.51;98595.72;4996512;28;20224;-70
2021/03/17 10:45:17;;;;;;;3.63;2.17;;;;;;;8.55;67.63;98597.50;4991666;28;20204;-70
2021/03/17 10:47:46;;;;;;;6.10;2.10;;;;;;;8.97;67.17;98584.63;4994692;28;20251;-71
2021/03/17 10:50:14;;;;;;;3.30;2.17;;;;;;;9.17;66.14;98588.47;4996062;28;20199;-71
2021/03/17 10:52:43;;;;;;;3.87;2.20;;;;;;;9.39;67.98;98584.94;4988815;28;20732;-69
2021/03/17 10:55:19;;;;;;;4.20;2.00;;;;;;;10.28;61.88;98588.41;4999987;28;20233;-70
2021/03/17 10:57:48;;;;;;;4.73;2.30;;;;;;;9.05;61.11;98592.56;4990327;28;20207;-71
2021/03/17 11:00:21;;;;;;;3.67;1.80;;;;;;;9.69;61.38;98585.88;5002065;28;20200;-70
2021/03/17 11:02:47;;;;;;;4.67;1.70;;;;;;;9.68;60.97;98589.50;4991221;28;20232;-70
2021/03/17 11:05:28;;;;;;;3.93;2.00;;;;;;;8.53;65.96;98577.41;4993043;28;20213;-70
2021/03/17 11:08:09;;;;;;;4.50;1.70;;;;;;;8.74;67.95;98583.78;4991031;28;20204;-71
2021/03/17 11:10:54;;;;;;;2.77;1.47;;;;;;;8.41;65.99;98581.44;4995588;28;20843;-69
2021/03/17 11:13:33;;;;;;;2.97;2.10;;;;;;;8.08;72.34;98572.72;4993748;28;20582;-74
2021/03/17 11:16:02;;;;;;;5.87;2.17;;;;;;;8.66;67.28;98580.31;5000502;28;20560;-70
2021/03/17 11:18:30;;;;;;;2.07;1.70;;;;;;;8.69;67.96;98574.66;4994536;28;20210;-70
2021/03/17 11:20:59;;;;;;;3.53;1.87;;;;;;;8.21;71.21;98581.03;4998277;28;20245;-69
2021/03/17 11:23:29;;;;;;;3.97;1.80;;;;;;;8.65;66.38;98587.47;5000700;28;20222;-70
2021/03/17 11:25:57;;;;;;;3.97;1.73;;;;;;;8.19;69.78;98580.34;5005504;28;20262;-73
2021/03/17 11:28:26;;;;;;;4.03;1.93;;;;;;;8.69;69.44;98578.16;4993537;28;20214;-70
2021/03/17 11:30:55;;;;;;;5.00;2.30;;;;;;;8.31;72.60;98567.53;4997883;28;20203;-74
2021/03/17 11:33:22;;;;;;;3.60;1.93;;;;;;;8.24;76.25;98570.06;4997044;28;20227;-72
2021/03/17 11:35:51;;;;;;;4.00;2.40;;;;;;;8.09;76.68;98571.75;4995128;28;20297;-71
2021/03/17 11:38:19;;;;;;;4.03;1.97;;;;;;;7.63;79.99;98574.34;5000229;28;20206;-68
2021/03/17 11:40:48;;;;;;;4.07;2.40;;;;;;;7.70;86.93;98583.28;4997886;28;20209;-73
2021/03/17 11:43:16;;;;;;;4.33;2.53;;;;;;;7.24;96.23;98591.97;4994891;28;20589;-75
2021/03/17 11:45:45;;;;;;;4.50;2.80;;;;;;;7.25;100.00;98585.69;4987255;28;20582;-71
2021/03/17 11:48:12;;;;;;;5.23;2.83;;;;;;;7.73;100.00;98583.81;4999505;28;20282;-73
2021/03/17 11:50:41;;;;;;;5.90;3.13;;;;;;;6.77;100.00;98596.22;4994797;28;20214;-72